Terminal Aerodrome Forecast
Issued by NWS Melbourne, FL

Home | Current Version | Previous Version | Text Only | Print | Product List | Glossary On
Versions: 1 2 3 4 5 6 7 8 9 10 11 12 13 14 15 16 17 18 19 20 21 22 23 24 25
000
FTUS42 KMLB 211721
TAFMCO
TAF
KMCO 211721Z 2118/2224 11011KT P6SM -RA VCSH SCT020 OVC070
      TEMPO 2118/2120 2SM +SHRA BKN020
     FM212000 12008KT 6SM -RA BR SCT015 BKN050 OVC090
     FM220000 10005KT P6SM SCT020 BKN040 OVC070
     FM221400 12007KT P6SM VCSH SCT025 BKN050 BKN100=

USA.gov is the U.S. government's official web portal to all federal, state and local government web resources and services.